sensor_id;sensor_type;location;lat;lon;timestamp;P1;durP1;ratioP1;P2;durP2;ratioP2
2406;SDS011;37709;53.480;9.688;2022-08-20T00:02:11;3.20;;;3.00;;
2406;SDS011;37709;53.480;9.688;2022-08-20T00:04:39;2.90;;;2.70;;
2406;SDS011;37709;53.480;9.688;2022-08-20T00:07:07;4.07;;;3.20;;
2406;SDS011;37709;53.480;9.688;2022-08-20T00:09:34;3.50;;;3.20;;
2406;SDS011;37709;53.480;9.688;2022-08-20T00:12:04;2.70;;;2.50;;
2406;SDS011;37709;53.480;9.688;2022-08-20T00:14:32;4.60;;;2.63;;
2406;SDS011;37709;53.480;9.688;2022-08-20T00:17:01;2.90;;;2.70;;
2406;SDS011;37709;53.480;9.688;2022-08-20T00:19:29;3.07;;;2.87;;
2406;SDS011;37709;53.480;9.688;2022-08-20T00:21:57;3.43;;;3.10;;
2406;SDS011;37709;53.480;9.688;2022-08-20T00:24:24;2.63;;;2.43;;
2406;SDS011;37709;53.480;9.688;2022-08-20T00:26:52;2.83;;;2.63;;
2406;SDS011;37709;53.480;9.688;2022-08-20T00:29:19;2.30;;;2.10;;
2406;SDS011;37709;53.480;9.688;2022-08-20T00:31:49;2.83;;;2.63;;
2406;SDS011;37709;53.480;9.688;2022-08-20T00:34:16;3.77;;;2.87;;
2406;SDS011;37709;53.480;9.688;2022-08-20T00:36:44;3.47;;;2.83;;
2406;SDS011;37709;53.480;9.688;2022-08-20T00:39:11;3.00;;;2.80;;
2406;SDS011;37709;53.480;9.688;2022-08-20T00:41:39;3.17;;;2.87;;
2406;SDS011;37709;53.480;9.688;2022-08-20T00:44:11;2.97;;;2.70;;
2406;SDS011;37709;53.480;9.688;2022-08-20T00:46:44;3.20;;;2.90;;
2406;SDS011;37709;53.480;9.688;2022-08-20T00:49:17;2.63;;;2.43;;
2406;SDS011;37709;53.480;9.688;2022-08-20T00:51:50;3.03;;;2.60;;
2406;SDS011;37709;53.480;9.688;2022-08-20T00:54:25;3.40;;;3.10;;
2406;SDS011;37709;53.480;9.688;2022-08-20T00:56:55;3.20;;;3.00;;
2406;SDS011;37709;53.480;9.688;2022-08-20T00:59:33;4.47;;;3.30;;
2406;SDS011;37709;53.480;9.688;2022-08-20T01:02:04;2.97;;;2.77;;
2406;SDS011;37709;53.480;9.688;2022-08-20T01:04:38;3.23;;;2.90;;
2406;SDS011;37709;53.480;9.688;2022-08-20T01:07:05;2.87;;;2.67;;
2406;SDS011;37709;53.480;9.688;2022-08-20T01:09:34;3.37;;;3.07;;
2406;SDS011;37709;53.480;9.688;2022-08-20T01:12:23;3.50;;;3.20;;
2406;SDS011;37709;53.480;9.688;2022-08-20T01:14:51;3.60;;;3.30;;
2406;SDS011;37709;53.480;9.688;2022-08-20T01:17:20;3.70;;;3.40;;
2406;SDS011;37709;53.480;9.688;2022-08-20T01:22:36;3.63;;;3.33;;
2406;SDS011;37709;53.480;9.688;2022-08-20T01:28:31;4.10;;;3.80;;
2406;SDS011;37709;53.480;9.688;2022-08-20T01:31:03;4.30;;;4.00;;
2406;SDS011;37709;53.480;9.688;2022-08-20T01:33:32;4.27;;;3.93;;
2406;SDS011;37709;53.480;9.688;2022-08-20T01:36:00;5.30;;;4.50;;
2406;SDS011;37709;53.480;9.688;2022-08-20T01:38:28;5.40;;;5.00;;
2406;SDS011;37709;53.480;9.688;2022-08-20T01:43:55;5.43;;;4.97;;
2406;SDS011;37709;53.480;9.688;2022-08-20T01:46:29;6.07;;;5.57;;
2406;SDS011;37709;53.480;9.688;2022-08-20T01:49:06;5.77;;;5.27;;
2406;SDS011;37709;53.480;9.688;2022-08-20T01:51:49;5.87;;;5.20;;
2406;SDS011;37709;53.480;9.688;2022-08-20T01:54:19;6.47;;;5.83;;
2406;SDS011;37709;53.480;9.688;2022-08-20T01:59:19;6.60;;;6.07;;
2406;SDS011;37709;53.480;9.688;2022-08-20T02:01:47;7.27;;;6.57;;
2406;SDS011;37709;53.480;9.688;2022-08-20T02:04:15;7.03;;;6.40;;
2406;SDS011;37709;53.480;9.688;2022-08-20T02:06:48;6.93;;;6.30;;
2406;SDS011;37709;53.480;9.688;2022-08-20T02:09:24;8.20;;;7.40;;
2406;SDS011;37709;53.480;9.688;2022-08-20T02:11:53;8.17;;;7.47;;
2406;SDS011;37709;53.480;9.688;2022-08-20T02:14:21;7.97;;;7.30;;
2406;SDS011;37709;53.480;9.688;2022-08-20T02:16:49;7.67;;;7.07;;
2406;SDS011;37709;53.480;9.688;2022-08-20T02:19:26;8.63;;;7.73;;
2406;SDS011;37709;53.480;9.688;2022-08-20T02:22:01;7.80;;;7.20;;
2406;SDS011;37709;53.480;9.688;2022-08-20T02:24:32;8.30;;;7.60;;
2406;SDS011;37709;53.480;9.688;2022-08-20T02:26:59;10.97;;;8.33;;
2406;SDS011;37709;53.480;9.688;2022-08-20T02:29:27;9.57;;;8.77;;
2406;SDS011;37709;53.480;9.688;2022-08-20T02:31:55;10.20;;;9.30;;
2406;SDS011;37709;53.480;9.688;2022-08-20T02:34:42;10.10;;;9.30;;
2406;SDS011;37709;53.480;9.688;2022-08-20T02:37:10;11.27;;;10.00;;
2406;SDS011;37709;53.480;9.688;2022-08-20T02:39:43;11.40;;;10.20;;
2406;SDS011;37709;53.480;9.688;2022-08-20T02:42:11;12.03;;;10.93;;
2406;SDS011;37709;53.480;9.688;2022-08-20T02:44:40;11.37;;;10.37;;
2406;SDS011;37709;53.480;9.688;2022-08-20T02:47:07;12.03;;;10.93;;
2406;SDS011;37709;53.480;9.688;2022-08-20T02:49:34;12.83;;;11.53;;
2406;SDS011;37709;53.480;9.688;2022-08-20T02:52:02;13.67;;;12.00;;
2406;SDS011;37709;53.480;9.688;2022-08-20T02:54:29;13.83;;;12.40;;
2406;SDS011;37709;53.480;9.688;2022-08-20T02:56:57;13.17;;;11.77;;
2406;SDS011;37709;53.480;9.688;2022-08-20T02:59:24;12.30;;;11.00;;
2406;SDS011;37709;53.480;9.688;2022-08-20T03:01:52;12.30;;;11.10;;
2406;SDS011;37709;53.480;9.688;2022-08-20T03:04:27;11.90;;;10.80;;
2406;SDS011;37709;53.480;9.688;2022-08-20T03:06:56;11.63;;;10.47;;
2406;SDS011;37709;53.480;9.688;2022-08-20T03:09:24;12.13;;;11.20;;
2406;SDS011;37709;53.480;9.688;2022-08-20T03:11:52;11.13;;;10.13;;
2406;SDS011;37709;53.480;9.688;2022-08-20T03:14:20;10.77;;;9.20;;
2406;SDS011;37709;53.480;9.688;2022-08-20T03:16:48;10.83;;;9.83;;
2406;SDS011;37709;53.480;9.688;2022-08-20T03:19:16;9.90;;;8.97;;
2406;SDS011;37709;53.480;9.688;2022-08-20T03:21:43;9.40;;;8.50;;
2406;SDS011;37709;53.480;9.688;2022-08-20T03:24:11;9.50;;;8.60;;
2406;SDS011;37709;53.480;9.688;2022-08-20T03:26:39;9.73;;;8.83;;
2406;SDS011;37709;53.480;9.688;2022-08-20T03:29:07;9.40;;;8.60;;
2406;SDS011;37709;53.480;9.688;2022-08-20T03:31:35;10.83;;;9.73;;
2406;SDS011;37709;53.480;9.688;2022-08-20T03:34:03;10.63;;;9.73;;
2406;SDS011;37709;53.480;9.688;2022-08-20T03:36:30;9.93;;;9.03;;
2406;SDS011;37709;53.480;9.688;2022-08-20T03:38:58;10.80;;;9.90;;
2406;SDS011;37709;53.480;9.688;2022-08-20T03:41:27;10.50;;;9.60;;
2406;SDS011;37709;53.480;9.688;2022-08-20T03:43:55;12.60;;;11.40;;
2406;SDS011;37709;53.480;9.688;2022-08-20T03:46:23;10.00;;;9.10;;
2406;SDS011;37709;53.480;9.688;2022-08-20T03:48:51;11.57;;;10.47;;
2406;SDS011;37709;53.480;9.688;2022-08-20T03:51:29;11.30;;;10.20;;
2406;SDS011;37709;53.480;9.688;2022-08-20T03:54:17;11.57;;;10.43;;
2406;SDS011;37709;53.480;9.688;2022-08-20T03:56:45;11.07;;;9.97;;
2406;SDS011;37709;53.480;9.688;2022-08-20T03:59:13;10.73;;;9.83;;
2406;SDS011;37709;53.480;9.688;2022-08-20T04:01:41;12.53;;;10.10;;
2406;SDS011;37709;53.480;9.688;2022-08-20T04:04:12;10.37;;;9.47;;
2406;SDS011;37709;53.480;9.688;2022-08-20T04:06:40;10.30;;;9.40;;
2406;SDS011;37709;53.480;9.688;2022-08-20T04:09:08;11.40;;;10.20;;
2406;SDS011;37709;53.480;9.688;2022-08-20T04:11:38;11.27;;;9.77;;
2406;SDS011;37709;53.480;9.688;2022-08-20T04:14:07;12.30;;;11.20;;
2406;SDS011;37709;53.480;9.688;2022-08-20T04:16:37;11.63;;;10.53;;
2406;SDS011;37709;53.480;9.688;2022-08-20T04:19:07;11.93;;;10.80;;
2406;SDS011;37709;53.480;9.688;2022-08-20T04:21:34;11.07;;;10.07;;
2406;SDS011;37709;53.480;9.688;2022-08-20T04:24:03;11.03;;;10.00;;
2406;SDS011;37709;53.480;9.688;2022-08-20T04:26:31;12.47;;;11.27;;
2406;SDS011;37709;53.480;9.688;2022-08-20T04:29:02;12.67;;;11.57;;
2406;SDS011;37709;53.480;9.688;2022-08-20T04:31:30;13.70;;;11.00;;
2406;SDS011;37709;53.480;9.688;2022-08-20T04:34:01;12.60;;;11.43;;
2406;SDS011;37709;53.480;9.688;2022-08-20T04:36:30;12.27;;;11.17;;
2406;SDS011;37709;53.480;9.688;2022-08-20T04:38:57;11.97;;;10.83;;
2406;SDS011;37709;53.480;9.688;2022-08-20T04:41:25;11.43;;;10.20;;
2406;SDS011;37709;53.480;9.688;2022-08-20T04:46:51;13.20;;;11.90;;
2406;SDS011;37709;53.480;9.688;2022-08-20T04:49:18;12.70;;;11.50;;
2406;SDS011;37709;53.480;9.688;2022-08-20T04:51:53;13.43;;;12.23;;
2406;SDS011;37709;53.480;9.688;2022-08-20T04:54:20;13.43;;;12.23;;
2406;SDS011;37709;53.480;9.688;2022-08-20T04:56:48;12.80;;;11.70;;
2406;SDS011;37709;53.480;9.688;2022-08-20T04:59:15;13.17;;;11.97;;
2406;SDS011;37709;53.480;9.688;2022-08-20T05:01:43;12.50;;;11.40;;
2406;SDS011;37709;53.480;9.688;2022-08-20T05:04:11;13.17;;;11.87;;
2406;SDS011;37709;53.480;9.688;2022-08-20T05:06:39;12.93;;;11.73;;
2406;SDS011;37709;53.480;9.688;2022-08-20T05:09:07;13.30;;;12.00;;
2406;SDS011;37709;53.480;9.688;2022-08-20T05:11:35;14.10;;;12.70;;
2406;SDS011;37709;53.480;9.688;2022-08-20T05:14:03;14.13;;;12.80;;
2406;SDS011;37709;53.480;9.688;2022-08-20T05:16:35;13.40;;;12.20;;
2406;SDS011;37709;53.480;9.688;2022-08-20T05:19:05;13.63;;;12.27;;
2406;SDS011;37709;53.480;9.688;2022-08-20T05:21:34;12.80;;;11.53;;
2406;SDS011;37709;53.480;9.688;2022-08-20T05:24:03;15.67;;;12.40;;
2406;SDS011;37709;53.480;9.688;2022-08-20T05:26:32;12.97;;;11.87;;
2406;SDS011;37709;53.480;9.688;2022-08-20T05:29:00;13.30;;;12.00;;
2406;SDS011;37709;53.480;9.688;2022-08-20T05:31:31;13.13;;;11.90;;
2406;SDS011;37709;53.480;9.688;2022-08-20T05:34:04;14.00;;;12.77;;
2406;SDS011;37709;53.480;9.688;2022-08-20T05:36:38;12.43;;;11.33;;
2406;SDS011;37709;53.480;9.688;2022-08-20T05:39:08;12.70;;;11.60;;
2406;SDS011;37709;53.480;9.688;2022-08-20T05:41:37;13.10;;;11.90;;
2406;SDS011;37709;53.480;9.688;2022-08-20T05:44:09;12.27;;;11.27;;
2406;SDS011;37709;53.480;9.688;2022-08-20T05:46:40;13.27;;;11.97;;
2406;SDS011;37709;53.480;9.688;2022-08-20T05:49:11;12.97;;;11.80;;
2406;SDS011;37709;53.480;9.688;2022-08-20T05:51:42;13.27;;;12.00;;
2406;SDS011;37709;53.480;9.688;2022-08-20T05:54:10;13.27;;;11.93;;
2406;SDS011;37709;53.480;9.688;2022-08-20T05:56:38;13.13;;;11.93;;
2406;SDS011;37709;53.480;9.688;2022-08-20T05:59:07;13.70;;;12.50;;
2406;SDS011;37709;53.480;9.688;2022-08-20T06:01:37;12.70;;;11.57;;
2406;SDS011;37709;53.480;9.688;2022-08-20T06:04:05;13.33;;;11.93;;
2406;SDS011;37709;53.480;9.688;2022-08-20T06:06:55;11.30;;;10.40;;
2406;SDS011;37709;53.480;9.688;2022-08-20T06:09:28;12.97;;;11.77;;
2406;SDS011;37709;53.480;9.688;2022-08-20T06:11:58;12.50;;;11.30;;
2406;SDS011;37709;53.480;9.688;2022-08-20T06:14:27;12.00;;;10.90;;
2406;SDS011;37709;53.480;9.688;2022-08-20T06:17:00;12.00;;;10.90;;
2406;SDS011;37709;53.480;9.688;2022-08-20T06:19:30;11.90;;;10.80;;
2406;SDS011;37709;53.480;9.688;2022-08-20T06:21:59;12.73;;;11.43;;
2406;SDS011;37709;53.480;9.688;2022-08-20T06:24:27;11.17;;;10.20;;
2406;SDS011;37709;53.480;9.688;2022-08-20T06:26:58;11.73;;;10.70;;
2406;SDS011;37709;53.480;9.688;2022-08-20T06:29:27;11.80;;;10.80;;
2406;SDS011;37709;53.480;9.688;2022-08-20T06:31:55;11.37;;;10.27;;
2406;SDS011;37709;53.480;9.688;2022-08-20T06:34:23;11.33;;;10.40;;
2406;SDS011;37709;53.480;9.688;2022-08-20T06:36:57;11.07;;;9.97;;
2406;SDS011;37709;53.480;9.688;2022-08-20T06:39:25;11.30;;;10.40;;
2406;SDS011;37709;53.480;9.688;2022-08-20T06:41:55;11.60;;;10.50;;
2406;SDS011;37709;53.480;9.688;2022-08-20T06:44:24;11.13;;;10.23;;
2406;SDS011;37709;53.480;9.688;2022-08-20T06:46:58;11.13;;;10.20;;
2406;SDS011;37709;53.480;9.688;2022-08-20T06:49:26;10.80;;;9.80;;
2406;SDS011;37709;53.480;9.688;2022-08-20T06:51:59;11.30;;;10.47;;
2406;SDS011;37709;53.480;9.688;2022-08-20T06:54:28;9.70;;;9.00;;
2406;SDS011;37709;53.480;9.688;2022-08-20T06:56:55;9.80;;;9.00;;
2406;SDS011;37709;53.480;9.688;2022-08-20T06:59:23;9.80;;;9.00;;
2406;SDS011;37709;53.480;9.688;2022-08-20T07:01:50;9.73;;;8.67;;
2406;SDS011;37709;53.480;9.688;2022-08-20T07:04:23;10.90;;;8.70;;
2406;SDS011;37709;53.480;9.688;2022-08-20T07:06:52;9.37;;;8.17;;
2406;SDS011;37709;53.480;9.688;2022-08-20T07:09:20;8.30;;;7.60;;
2406;SDS011;37709;53.480;9.688;2022-08-20T07:11:48;8.40;;;7.73;;
2406;SDS011;37709;53.480;9.688;2022-08-20T07:14:17;8.10;;;7.30;;
2406;SDS011;37709;53.480;9.688;2022-08-20T07:16:45;6.50;;;6.00;;
2406;SDS011;37709;53.480;9.688;2022-08-20T07:19:13;8.03;;;5.43;;
2406;SDS011;37709;53.480;9.688;2022-08-20T07:21:41;5.10;;;4.60;;
2406;SDS011;37709;53.480;9.688;2022-08-20T07:24:08;4.63;;;4.30;;
2406;SDS011;37709;53.480;9.688;2022-08-20T07:26:36;4.20;;;3.80;;
2406;SDS011;37709;53.480;9.688;2022-08-20T07:29:04;4.60;;;4.20;;
2406;SDS011;37709;53.480;9.688;2022-08-20T07:31:31;4.70;;;4.30;;
2406;SDS011;37709;53.480;9.688;2022-08-20T07:34:18;5.80;;;5.30;;
2406;SDS011;37709;53.480;9.688;2022-08-20T07:36:46;6.40;;;5.70;;
2406;SDS011;37709;53.480;9.688;2022-08-20T07:39:14;5.93;;;5.20;;
2406;SDS011;37709;53.480;9.688;2022-08-20T07:41:42;5.70;;;5.30;;
2406;SDS011;37709;53.480;9.688;2022-08-20T07:44:22;5.80;;;4.70;;
2406;SDS011;37709;53.480;9.688;2022-08-20T07:46:57;4.70;;;4.37;;
2406;SDS011;37709;53.480;9.688;2022-08-20T07:49:25;4.50;;;4.20;;
2406;SDS011;37709;53.480;9.688;2022-08-20T07:51:53;6.33;;;4.70;;
2406;SDS011;37709;53.480;9.688;2022-08-20T07:54:20;4.60;;;4.20;;
2406;SDS011;37709;53.480;9.688;2022-08-20T07:56:47;5.43;;;4.73;;
2406;SDS011;37709;53.480;9.688;2022-08-20T07:59:15;5.90;;;4.40;;
2406;SDS011;37709;53.480;9.688;2022-08-20T08:01:43;4.77;;;4.37;;
2406;SDS011;37709;53.480;9.688;2022-08-20T08:04:10;3.57;;;3.30;;
2406;SDS011;37709;53.480;9.688;2022-08-20T08:06:38;4.00;;;3.70;;
2406;SDS011;37709;53.480;9.688;2022-08-20T08:09:08;3.57;;;3.27;;
2406;SDS011;37709;53.480;9.688;2022-08-20T08:11:40;4.37;;;3.87;;
2406;SDS011;37709;53.480;9.688;2022-08-20T08:14:16;4.20;;;3.07;;
2406;SDS011;37709;53.480;9.688;2022-08-20T08:16:49;3.07;;;2.73;;
2406;SDS011;37709;53.480;9.688;2022-08-20T08:19:19;3.30;;;2.47;;
2406;SDS011;37709;53.480;9.688;2022-08-20T08:21:47;2.93;;;2.23;;
2406;SDS011;37709;53.480;9.688;2022-08-20T08:24:15;3.23;;;2.43;;
2406;SDS011;37709;53.480;9.688;2022-08-20T08:26:49;2.97;;;2.20;;
2406;SDS011;37709;53.480;9.688;2022-08-20T08:29:18;4.03;;;1.93;;
2406;SDS011;37709;53.480;9.688;2022-08-20T08:31:45;2.03;;;1.83;;
2406;SDS011;37709;53.480;9.688;2022-08-20T08:34:13;3.43;;;1.90;;
2406;SDS011;37709;53.480;9.688;2022-08-20T08:36:40;2.53;;;1.83;;
2406;SDS011;37709;53.480;9.688;2022-08-20T08:39:10;2.73;;;2.17;;
2406;SDS011;37709;53.480;9.688;2022-08-20T08:41:41;2.90;;;1.83;;
2406;SDS011;37709;53.480;9.688;2022-08-20T08:44:19;3.50;;;1.87;;
2406;SDS011;37709;53.480;9.688;2022-08-20T08:46:52;2.03;;;1.90;;
2406;SDS011;37709;53.480;9.688;2022-08-20T08:49:50;2.27;;;1.80;;
2406;SDS011;37709;53.480;9.688;2022-08-20T08:52:23;4.03;;;2.03;;
2406;SDS011;37709;53.480;9.688;2022-08-20T08:54:55;2.07;;;1.50;;
2406;SDS011;37709;53.480;9.688;2022-08-20T08:57:25;4.50;;;2.13;;
2406;SDS011;37709;53.480;9.688;2022-08-20T08:59:55;3.77;;;1.90;;
2406;SDS011;37709;53.480;9.688;2022-08-20T09:02:53;3.30;;;1.70;;
2406;SDS011;37709;53.480;9.688;2022-08-20T09:05:48;3.13;;;1.73;;
2406;SDS011;37709;53.480;9.688;2022-08-20T09:08:21;5.10;;;2.50;;
2406;SDS011;37709;53.480;9.688;2022-08-20T09:10:52;4.10;;;1.80;;
2406;SDS011;37709;53.480;9.688;2022-08-20T09:13:19;4.73;;;1.93;;
2406;SDS011;37709;53.480;9.688;2022-08-20T09:15:47;3.83;;;2.27;;
2406;SDS011;37709;53.480;9.688;2022-08-20T09:18:14;3.50;;;2.00;;
2406;SDS011;37709;53.480;9.688;2022-08-20T09:20:42;2.80;;;2.00;;
2406;SDS011;37709;53.480;9.688;2022-08-20T09:23:09;4.97;;;2.33;;
2406;SDS011;37709;53.480;9.688;2022-08-20T09:25:37;4.00;;;1.80;;
2406;SDS011;37709;53.480;9.688;2022-08-20T09:28:05;4.47;;;2.20;;
2406;SDS011;37709;53.480;9.688;2022-08-20T09:30:32;3.10;;;1.87;;
2406;SDS011;37709;53.480;9.688;2022-08-20T09:33:02;4.17;;;1.60;;
2406;SDS011;37709;53.480;9.688;2022-08-20T09:35:29;5.97;;;2.03;;
2406;SDS011;37709;53.480;9.688;2022-08-20T09:37:57;2.47;;;1.60;;
2406;SDS011;37709;53.480;9.688;2022-08-20T09:40:24;3.07;;;1.70;;
2406;SDS011;37709;53.480;9.688;2022-08-20T09:42:52;5.37;;;2.00;;
2406;SDS011;37709;53.480;9.688;2022-08-20T09:45:20;3.47;;;2.10;;
2406;SDS011;37709;53.480;9.688;2022-08-20T09:47:48;4.90;;;2.00;;
2406;SDS011;37709;53.480;9.688;2022-08-20T09:50:28;4.30;;;2.17;;
2406;SDS011;37709;53.480;9.688;2022-08-20T09:52:57;4.30;;;2.00;;
2406;SDS011;37709;53.480;9.688;2022-08-20T09:55:37;3.83;;;2.10;;
2406;SDS011;37709;53.480;9.688;2022-08-20T09:58:53;4.50;;;1.97;;
2406;SDS011;37709;53.480;9.688;2022-08-20T10:01:14;4.97;;;2.10;;
2406;SDS011;37709;53.480;9.688;2022-08-20T10:03:43;4.17;;;2.33;;
2406;SDS011;37709;53.480;9.688;2022-08-20T10:06:15;6.13;;;2.17;;
2406;SDS011;37709;53.480;9.688;2022-08-20T10:08:45;4.33;;;1.80;;
2406;SDS011;37709;53.480;9.688;2022-08-20T10:11:14;4.27;;;1.60;;
2406;SDS011;37709;53.480;9.688;2022-08-20T10:13:44;5.20;;;1.97;;
2406;SDS011;37709;53.480;9.688;2022-08-20T10:16:11;3.97;;;1.83;;
2406;SDS011;37709;53.480;9.688;2022-08-20T10:18:40;6.13;;;2.20;;
2406;SDS011;37709;53.480;9.688;2022-08-20T10:21:08;5.27;;;2.00;;
2406;SDS011;37709;53.480;9.688;2022-08-20T10:23:36;3.13;;;1.93;;
2406;SDS011;37709;53.480;9.688;2022-08-20T10:26:05;3.30;;;2.03;;
2406;SDS011;37709;53.480;9.688;2022-08-20T10:28:39;5.93;;;2.60;;
2406;SDS011;37709;53.480;9.688;2022-08-20T10:31:09;6.63;;;1.90;;
2406;SDS011;37709;53.480;9.688;2022-08-20T10:33:37;5.57;;;2.47;;
2406;SDS011;37709;53.480;9.688;2022-08-20T10:38:34;3.47;;;1.90;;
2406;SDS011;37709;53.480;9.688;2022-08-20T10:41:02;4.47;;;1.93;;
2406;SDS011;37709;53.480;9.688;2022-08-20T10:43:30;5.93;;;2.07;;
2406;SDS011;37709;53.480;9.688;2022-08-20T10:45:57;3.90;;;1.80;;
2406;SDS011;37709;53.480;9.688;2022-08-20T10:48:25;2.70;;;1.57;;
2406;SDS011;37709;53.480;9.688;2022-08-20T10:50:53;4.37;;;2.07;;
2406;SDS011;37709;53.480;9.688;2022-08-20T10:53:21;3.43;;;1.87;;
2406;SDS011;37709;53.480;9.688;2022-08-20T10:55:48;3.90;;;2.00;;
2406;SDS011;37709;53.480;9.688;2022-08-20T10:58:16;4.30;;;1.57;;
2406;SDS011;37709;53.480;9.688;2022-08-20T11:00:46;4.83;;;1.73;;
2406;SDS011;37709;53.480;9.688;2022-08-20T11:03:13;3.00;;;1.70;;
2406;SDS011;37709;53.480;9.688;2022-08-20T11:05:40;2.90;;;1.63;;
2406;SDS011;37709;53.480;9.688;2022-08-20T11:08:08;2.40;;;1.37;;
2406;SDS011;37709;53.480;9.688;2022-08-20T11:10:36;4.07;;;2.00;;
2406;SDS011;37709;53.480;9.688;2022-08-20T11:13:05;6.00;;;1.83;;
2406;SDS011;37709;53.480;9.688;2022-08-20T11:15:37;5.43;;;1.77;;
2406;SDS011;37709;53.480;9.688;2022-08-20T11:18:07;4.80;;;1.30;;
2406;SDS011;37709;53.480;9.688;2022-08-20T11:20:36;1.67;;;1.00;;
2406;SDS011;37709;53.480;9.688;2022-08-20T11:23:03;4.03;;;1.50;;
2406;SDS011;37709;53.480;9.688;2022-08-20T11:25:31;2.17;;;1.10;;
2406;SDS011;37709;53.480;9.688;2022-08-20T11:27:58;2.37;;;1.00;;
2406;SDS011;37709;53.480;9.688;2022-08-20T11:30:27;3.87;;;1.30;;
2406;SDS011;37709;53.480;9.688;2022-08-20T11:32:56;4.43;;;1.57;;
2406;SDS011;37709;53.480;9.688;2022-08-20T11:35:26;4.13;;;1.20;;
2406;SDS011;37709;53.480;9.688;2022-08-20T11:38:16;2.83;;;1.30;;
2406;SDS011;37709;53.480;9.688;2022-08-20T11:40:44;2.37;;;1.23;;
2406;SDS011;37709;53.480;9.688;2022-08-20T11:43:13;3.73;;;1.63;;
2406;SDS011;37709;53.480;9.688;2022-08-20T11:45:43;2.37;;;1.07;;
2406;SDS011;37709;53.480;9.688;2022-08-20T11:48:13;3.20;;;1.33;;
2406;SDS011;37709;53.480;9.688;2022-08-20T11:50:41;3.90;;;1.47;;
2406;SDS011;37709;53.480;9.688;2022-08-20T11:53:08;2.13;;;1.33;;
2406;SDS011;37709;53.480;9.688;2022-08-20T11:55:36;2.50;;;1.10;;
2406;SDS011;37709;53.480;9.688;2022-08-20T11:58:05;3.70;;;1.30;;
2406;SDS011;37709;53.480;9.688;2022-08-20T12:00:33;2.13;;;1.10;;
2406;SDS011;37709;53.480;9.688;2022-08-20T12:03:04;2.43;;;1.20;;
2406;SDS011;37709;53.480;9.688;2022-08-20T12:05:36;3.33;;;1.17;;
2406;SDS011;37709;53.480;9.688;2022-08-20T12:08:04;3.57;;;1.50;;
2406;SDS011;37709;53.480;9.688;2022-08-20T12:10:32;4.23;;;1.20;;
2406;SDS011;37709;53.480;9.688;2022-08-20T12:13:00;2.27;;;1.10;;
2406;SDS011;37709;53.480;9.688;2022-08-20T12:15:34;2.90;;;1.60;;
2406;SDS011;37709;53.480;9.688;2022-08-20T12:18:06;1.63;;;0.90;;
2406;SDS011;37709;53.480;9.688;2022-08-20T12:20:34;2.70;;;1.00;;
2406;SDS011;37709;53.480;9.688;2022-08-20T12:23:03;2.90;;;1.50;;
2406;SDS011;37709;53.480;9.688;2022-08-20T12:25:31;3.07;;;1.23;;
2406;SDS011;37709;53.480;9.688;2022-08-20T12:27:59;3.37;;;1.33;;
2406;SDS011;37709;53.480;9.688;2022-08-20T12:30:27;3.10;;;1.10;;
2406;SDS011;37709;53.480;9.688;2022-08-20T12:32:54;2.30;;;1.17;;
2406;SDS011;37709;53.480;9.688;2022-08-20T12:35:22;3.40;;;1.33;;
2406;SDS011;37709;53.480;9.688;2022-08-20T12:37:51;1.70;;;0.87;;
2406;SDS011;37709;53.480;9.688;2022-08-20T12:40:23;3.33;;;1.37;;
2406;SDS011;37709;53.480;9.688;2022-08-20T12:43:01;2.20;;;1.10;;
2406;SDS011;37709;53.480;9.688;2022-08-20T12:45:30;2.50;;;1.07;;
2406;SDS011;37709;53.480;9.688;2022-08-20T12:48:02;4.03;;;1.20;;
2406;SDS011;37709;53.480;9.688;2022-08-20T12:50:32;2.40;;;1.33;;
2406;SDS011;37709;53.480;9.688;2022-08-20T12:53:01;4.63;;;1.67;;
2406;SDS011;37709;53.480;9.688;2022-08-20T12:55:29;2.20;;;1.10;;
2406;SDS011;37709;53.480;9.688;2022-08-20T12:57:59;2.40;;;1.00;;
2406;SDS011;37709;53.480;9.688;2022-08-20T13:00:29;3.70;;;1.00;;
2406;SDS011;37709;53.480;9.688;2022-08-20T13:03:01;2.70;;;1.20;;
2406;SDS011;37709;53.480;9.688;2022-08-20T13:05:30;3.53;;;1.07;;
2406;SDS011;37709;53.480;9.688;2022-08-20T13:07:58;3.03;;;1.20;;
2406;SDS011;37709;53.480;9.688;2022-08-20T13:10:30;3.93;;;1.20;;
2406;SDS011;37709;53.480;9.688;2022-08-20T13:13:00;3.20;;;1.13;;
2406;SDS011;37709;53.480;9.688;2022-08-20T13:15:30;1.80;;;0.97;;
2406;SDS011;37709;53.480;9.688;2022-08-20T13:17:59;2.97;;;1.07;;
2406;SDS011;37709;53.480;9.688;2022-08-20T13:20:28;3.60;;;1.20;;
2406;SDS011;37709;53.480;9.688;2022-08-20T13:23:01;2.27;;;0.90;;
2406;SDS011;37709;53.480;9.688;2022-08-20T13:25:31;4.50;;;0.90;;
2406;SDS011;37709;53.480;9.688;2022-08-20T13:28:01;3.73;;;1.00;;
2406;SDS011;37709;53.480;9.688;2022-08-20T13:30:31;2.70;;;1.00;;
2406;SDS011;37709;53.480;9.688;2022-08-20T13:33:00;2.63;;;0.90;;
2406;SDS011;37709;53.480;9.688;2022-08-20T13:35:29;3.80;;;1.37;;
2406;SDS011;37709;53.480;9.688;2022-08-20T13:37:57;3.10;;;1.00;;
2406;SDS011;37709;53.480;9.688;2022-08-20T13:40:24;3.70;;;1.10;;
2406;SDS011;37709;53.480;9.688;2022-08-20T13:42:53;3.20;;;0.93;;
2406;SDS011;37709;53.480;9.688;2022-08-20T13:45:21;2.20;;;1.00;;
2406;SDS011;37709;53.480;9.688;2022-08-20T13:47:50;1.80;;;1.00;;
2406;SDS011;37709;53.480;9.688;2022-08-20T13:50:20;2.60;;;0.93;;
2406;SDS011;37709;53.480;9.688;2022-08-20T13:52:50;2.80;;;1.20;;
2406;SDS011;37709;53.480;9.688;2022-08-20T13:55:18;2.03;;;0.93;;
2406;SDS011;37709;53.480;9.688;2022-08-20T13:57:47;1.73;;;1.20;;
2406;SDS011;37709;53.480;9.688;2022-08-20T14:00:18;2.30;;;1.20;;
2406;SDS011;37709;53.480;9.688;2022-08-20T14:02:58;3.57;;;1.30;;
2406;SDS011;37709;53.480;9.688;2022-08-20T14:05:27;1.80;;;1.00;;
2406;SDS011;37709;53.480;9.688;2022-08-20T14:08:02;1.80;;;1.07;;
2406;SDS011;37709;53.480;9.688;2022-08-20T14:10:35;2.50;;;1.37;;
2406;SDS011;37709;53.480;9.688;2022-08-20T14:13:04;2.57;;;1.33;;
2406;SDS011;37709;53.480;9.688;2022-08-20T14:15:41;3.10;;;1.10;;
2406;SDS011;37709;53.480;9.688;2022-08-20T14:18:10;2.73;;;1.60;;
2406;SDS011;37709;53.480;9.688;2022-08-20T14:20:37;3.00;;;1.10;;
2406;SDS011;37709;53.480;9.688;2022-08-20T14:23:04;4.60;;;1.30;;
2406;SDS011;37709;53.480;9.688;2022-08-20T14:25:33;5.30;;;1.83;;
2406;SDS011;37709;53.480;9.688;2022-08-20T14:28:07;5.40;;;1.30;;
2406;SDS011;37709;53.480;9.688;2022-08-20T14:30:36;5.30;;;2.47;;
2406;SDS011;37709;53.480;9.688;2022-08-20T14:33:03;3.90;;;1.57;;
2406;SDS011;37709;53.480;9.688;2022-08-20T14:35:31;1.73;;;1.20;;
2406;SDS011;37709;53.480;9.688;2022-08-20T14:38:01;1.90;;;1.10;;
2406;SDS011;37709;53.480;9.688;2022-08-20T14:40:31;4.27;;;1.17;;
2406;SDS011;37709;53.480;9.688;2022-08-20T14:43:00;3.27;;;1.17;;
2406;SDS011;37709;53.480;9.688;2022-08-20T14:45:29;3.30;;;1.10;;
2406;SDS011;37709;53.480;9.688;2022-08-20T14:47:57;2.60;;;1.13;;
2406;SDS011;37709;53.480;9.688;2022-08-20T14:50:29;2.97;;;1.30;;
2406;SDS011;37709;53.480;9.688;2022-08-20T14:52:59;2.23;;;1.00;;
2406;SDS011;37709;53.480;9.688;2022-08-20T14:55:29;3.03;;;0.97;;
2406;SDS011;37709;53.480;9.688;2022-08-20T14:57:58;1.90;;;1.03;;
2406;SDS011;37709;53.480;9.688;2022-08-20T15:00:27;2.43;;;1.30;;
2406;SDS011;37709;53.480;9.688;2022-08-20T15:02:56;3.43;;;1.30;;
2406;SDS011;37709;53.480;9.688;2022-08-20T15:05:24;2.70;;;1.00;;
2406;SDS011;37709;53.480;9.688;2022-08-20T15:07:52;3.23;;;1.13;;
2406;SDS011;37709;53.480;9.688;2022-08-20T15:10:23;2.77;;;1.30;;
2406;SDS011;37709;53.480;9.688;2022-08-20T15:12:52;1.30;;;0.80;;
2406;SDS011;37709;53.480;9.688;2022-08-20T15:15:20;2.33;;;1.10;;
2406;SDS011;37709;53.480;9.688;2022-08-20T15:17:49;2.63;;;0.90;;
2406;SDS011;37709;53.480;9.688;2022-08-20T15:20:19;2.33;;;1.17;;
2406;SDS011;37709;53.480;9.688;2022-08-20T15:22:51;5.30;;;1.37;;
2406;SDS011;37709;53.480;9.688;2022-08-20T15:25:19;3.20;;;1.47;;
2406;SDS011;37709;53.480;9.688;2022-08-20T15:27:49;2.90;;;1.10;;
2406;SDS011;37709;53.480;9.688;2022-08-20T15:30:19;4.13;;;1.20;;